Bow Faith — LAZM4 — position and weather

sailwx.info

Track history (hours):
 
Tides and Currents Weather Stations Pressure Air Temp Water Temp Dewpoint Dewpoint Depression Visibility Wind Speed Wind Dir Waves Ship Positions

Bow Faith

Last reported at 2018-Jun-24 07:32 UTC. Time now 2018-Jun-25 17:38 UTC.
Position S 29°39' E 031°29'.

Length 184 m; draft 7.4 m.

Type: Ship (hazmat cat B). MMSI: 259773000.

Date/timePositionNaut miles runAvg speedWind from/ knotsBaromVisibWave heightAir tempDewpointWater temp
2018-Jun-24 07:32S 29°39' E 031°29'014.8
2018-Jun-24 07:31S 29°40' E 031°29'714.1
2018-Jun-24 07:00S 29°44' E 031°23'714.4
2018-Jun-24 06:31S 29°48' E 031°16'714.8
2018-Jun-24 06:00S 29°50' E 031°07'510.1
2018-Jun-24 05:30S 29°53' E 031°02'  
2018-Jun-18 22:51S 29°53' E 031°02'0 0.5
2018-Jun-18 22:30S 29°53' E 031°03'1 2.1
2018-Jun-18 22:00S 29°52' E 031°03'4 7.6
2018-Jun-18 21:30S 29°50' E 031°07'5 9.1
2018-Jun-18 21:00S 29°49' E 031°12'611.5
2018-Jun-18 20:30S 29°47' E 031°18'611.8
2018-Jun-18 20:00S 29°45' E 031°24'612.3
2018-Jun-18 19:30S 29°42' E 031°31'713.4
2018-Jun-18 19:00S 29°39' E 031°37'2115.8
2018-Jun-18 17:42S 29°30' E 031°59'316.0
2018-Jun-18 17:30S 29°28' E 032°02'816.0
2018-Jun-18 17:00S 29°24' E 032°10'815.4
2018-Jun-18 16:30S 29°21' E 032°18'1514.8
2018-Jun-18 15:30S 29°14' E 032°32'1914.6
2018-Jun-18 14:13S 28°60' E 032°47'614.8
2018-Jun-18 13:47S 28°55' E 032°52'  
Track history (hours):
 
Tides and Currents Weather Stations Pressure Air Temp Water Temp Dewpoint Dewpoint Depression Visibility Wind Speed Wind Dir Waves Ship Positions

Bow Faith

Last reported at 2018-Jun-24 07:32 UTC. Time now 2018-Jun-25 17:38 UTC.
Position S 29°39' E 031°29'.

Length 184 m; draft 7.4 m.

Type: Ship (hazmat cat B). MMSI: 259773000.

Date/timePositionNaut miles runAvg speedWind from/ knotsBaromVisibWave heightAir tempDewpointWater temp
2018-Jun-24 07:32S 29°39' E 031°29'014.8
2018-Jun-24 07:31S 29°40' E 031°29'714.1
2018-Jun-24 07:00S 29°44' E 031°23'714.4
2018-Jun-24 06:31S 29°48' E 031°16'714.8
2018-Jun-24 06:00S 29°50' E 031°07'510.1
2018-Jun-24 05:30S 29°53' E 031°02'  
2018-Jun-18 22:51S 29°53' E 031°02'0 0.5
2018-Jun-18 22:30S 29°53' E 031°03'1 2.1
2018-Jun-18 22:00S 29°52' E 031°03'4 7.6
2018-Jun-18 21:30S 29°50' E 031°07'5 9.1
2018-Jun-18 21:00S 29°49' E 031°12'611.5
2018-Jun-18 20:30S 29°47' E 031°18'611.8
2018-Jun-18 20:00S 29°45' E 031°24'612.3
2018-Jun-18 19:30S 29°42' E 031°31'713.4
2018-Jun-18 19:00S 29°39' E 031°37'2115.8
2018-Jun-18 17:42S 29°30' E 031°59'316.0
2018-Jun-18 17:30S 29°28' E 032°02'816.0
2018-Jun-18 17:00S 29°24' E 032°10'815.4
2018-Jun-18 16:30S 29°21' E 032°18'1514.8
2018-Jun-18 15:30S 29°14' E 032°32'1914.6
2018-Jun-18 14:13S 28°60' E 032°47'614.8
2018-Jun-18 13:47S 28°55' E 032°52'  

Dump ship's entire track history